Terminal Aerodrome Forecast
Issued by NWS

Home | Current Version | Previous Version | Text Only | Print | Product List | Glossary On
Versions: 1 2 3 4 5 6 7 8 9 10 11 12 13 14 15 16 17 18 19 20 21 22 23 24 25 26 27
000
FTUS41 KCAR 211748
TAFFVE
TAF
KFVE 211748Z 2118/2218 VRB03KT P6SM OVC007
     FM212100 VRB03KT P6SM SCT007 OVC015
     FM220700 13004KT 3SM BR OVC006=

USA.gov is the U.S. government's official web portal to all federal, state and local government web resources and services.